sensor_id;sensor_type;location;lat;lon;timestamp;temperature;humidity
54680;DHT22;40578;53.178;5.846;2024-03-08T00:00:34;2.00;99.90
54680;DHT22;40578;53.178;5.846;2024-03-08T00:03:00;2.00;99.90
54680;DHT22;40578;53.178;5.846;2024-03-08T00:05:27;2.00;99.90
54680;DHT22;40578;53.178;5.846;2024-03-08T00:07:53;2.00;99.90
54680;DHT22;40578;53.178;5.846;2024-03-08T00:10:19;2.00;99.90
54680;DHT22;40578;53.178;5.846;2024-03-08T00:12:46;2.00;99.90
54680;DHT22;40578;53.178;5.846;2024-03-08T00:15:16;2.80;99.90
54680;DHT22;40578;53.178;5.846;2024-03-08T00:17:43;2.00;99.90
54680;DHT22;40578;53.178;5.846;2024-03-08T00:20:09;2.10;99.90
54680;DHT22;40578;53.178;5.846;2024-03-08T00:22:35;2.00;99.90
54680;DHT22;40578;53.178;5.846;2024-03-08T00:25:02;2.20;99.90
54680;DHT22;40578;53.178;5.846;2024-03-08T00:27:28;2.10;99.90
54680;DHT22;40578;53.178;5.846;2024-03-08T00:29:59;2.10;99.90
54680;DHT22;40578;53.178;5.846;2024-03-08T00:32:26;2.10;99.90
54680;DHT22;40578;53.178;5.846;2024-03-08T00:34:53;2.10;99.90
54680;DHT22;40578;53.178;5.846;2024-03-08T00:37:20;2.10;99.90
54680;DHT22;40578;53.178;5.846;2024-03-08T00:39:47;2.10;99.90
54680;DHT22;40578;53.178;5.846;2024-03-08T00:42:14;2.10;99.90
54680;DHT22;40578;53.178;5.846;2024-03-08T00:44:40;2.10;99.90
54680;DHT22;40578;53.178;5.846;2024-03-08T00:47:06;2.10;99.90
54680;DHT22;40578;53.178;5.846;2024-03-08T00:49:31;2.10;99.90
54680;DHT22;40578;53.178;5.846;2024-03-08T00:51:57;2.50;99.90
54680;DHT22;40578;53.178;5.846;2024-03-08T00:54:23;2.40;99.90
54680;DHT22;40578;53.178;5.846;2024-03-08T00:56:48;2.10;99.90
54680;DHT22;40578;53.178;5.846;2024-03-08T00:59:14;2.00;99.90
54680;DHT22;40578;53.178;5.846;2024-03-08T01:01:40;2.10;99.90
54680;DHT22;40578;53.178;5.846;2024-03-08T01:04:06;2.10;99.90
54680;DHT22;40578;53.178;5.846;2024-03-08T01:06:33;2.30;99.90
54680;DHT22;40578;53.178;5.846;2024-03-08T01:08:59;2.00;99.90
54680;DHT22;40578;53.178;5.846;2024-03-08T01:11:24;2.00;99.90
54680;DHT22;40578;53.178;5.846;2024-03-08T01:13:50;2.00;99.90
54680;DHT22;40578;53.178;5.846;2024-03-08T01:16:16;2.70;99.90
54680;DHT22;40578;53.178;5.846;2024-03-08T01:18:47;2.20;99.90
54680;DHT22;40578;53.178;5.846;2024-03-08T01:21:13;1.80;99.90
54680;DHT22;40578;53.178;5.846;2024-03-08T01:23:38;1.70;99.90
54680;DHT22;40578;53.178;5.846;2024-03-08T01:26:04;1.60;99.90
54680;DHT22;40578;53.178;5.846;2024-03-08T01:28:30;1.70;99.90
54680;DHT22;40578;53.178;5.846;2024-03-08T01:30:56;1.70;99.90
54680;DHT22;40578;53.178;5.846;2024-03-08T01:33:23;1.50;99.90
54680;DHT22;40578;53.178;5.846;2024-03-08T01:35:51;1.60;99.90
54680;DHT22;40578;53.178;5.846;2024-03-08T01:38:17;1.40;99.90
54680;DHT22;40578;53.178;5.846;2024-03-08T01:40:42;1.40;99.90
54680;DHT22;40578;53.178;5.846;2024-03-08T01:43:27;1.50;99.90
54680;DHT22;40578;53.178;5.846;2024-03-08T01:45:55;1.40;99.90
54680;DHT22;40578;53.178;5.846;2024-03-08T01:48:23;1.40;99.90
54680;DHT22;40578;53.178;5.846;2024-03-08T01:50:50;1.50;99.90
54680;DHT22;40578;53.178;5.846;2024-03-08T01:53:16;1.50;99.90
54680;DHT22;40578;53.178;5.846;2024-03-08T01:55:45;1.50;99.90
54680;DHT22;40578;53.178;5.846;2024-03-08T01:58:12;1.40;99.90
54680;DHT22;40578;53.178;5.846;2024-03-08T02:00:44;1.40;99.90
54680;DHT22;40578;53.178;5.846;2024-03-08T02:03:10;1.50;99.90
54680;DHT22;40578;53.178;5.846;2024-03-08T02:05:41;1.40;99.90
54680;DHT22;40578;53.178;5.846;2024-03-08T02:08:07;1.40;99.90
54680;DHT22;40578;53.178;5.846;2024-03-08T02:10:38;1.30;99.90
54680;DHT22;40578;53.178;5.846;2024-03-08T02:13:04;1.40;99.90
54680;DHT22;40578;53.178;5.846;2024-03-08T02:15:59;1.50;99.90
54680;DHT22;40578;53.178;5.846;2024-03-08T02:18:26;1.50;99.90
54680;DHT22;40578;53.178;5.846;2024-03-08T02:21:02;1.50;99.90
54680;DHT22;40578;53.178;5.846;2024-03-08T02:23:28;1.40;99.90
54680;DHT22;40578;53.178;5.846;2024-03-08T02:25:55;1.40;99.90
54680;DHT22;40578;53.178;5.846;2024-03-08T02:28:22;1.40;99.90
54680;DHT22;40578;53.178;5.846;2024-03-08T02:30:49;1.60;99.90
54680;DHT22;40578;53.178;5.846;2024-03-08T02:33:17;1.40;99.90
54680;DHT22;40578;53.178;5.846;2024-03-08T02:35:43;1.50;99.90
54680;DHT22;40578;53.178;5.846;2024-03-08T02:38:15;1.30;99.90
54680;DHT22;40578;53.178;5.846;2024-03-08T02:40:48;1.30;99.90
54680;DHT22;40578;53.178;5.846;2024-03-08T02:43:15;1.40;99.90
54680;DHT22;40578;53.178;5.846;2024-03-08T02:45:42;1.30;99.90
54680;DHT22;40578;53.178;5.846;2024-03-08T02:48:08;1.30;99.90
54680;DHT22;40578;53.178;5.846;2024-03-08T02:50:34;1.30;99.90
54680;DHT22;40578;53.178;5.846;2024-03-08T02:53:03;1.60;99.90
54680;DHT22;40578;53.178;5.846;2024-03-08T02:55:29;1.30;99.90
54680;DHT22;40578;53.178;5.846;2024-03-08T02:57:55;1.20;99.90
54680;DHT22;40578;53.178;5.846;2024-03-08T03:00:22;1.30;99.90
54680;DHT22;40578;53.178;5.846;2024-03-08T03:02:51;1.20;99.90
54680;DHT22;40578;53.178;5.846;2024-03-08T03:05:23;1.30;99.90
54680;DHT22;40578;53.178;5.846;2024-03-08T03:07:49;1.30;99.90
54680;DHT22;40578;53.178;5.846;2024-03-08T03:10:16;1.20;99.90
54680;DHT22;40578;53.178;5.846;2024-03-08T03:12:42;1.30;99.90
54680;DHT22;40578;53.178;5.846;2024-03-08T03:15:08;1.20;99.90
54680;DHT22;40578;53.178;5.846;2024-03-08T03:17:35;1.10;99.90
54680;DHT22;40578;53.178;5.846;2024-03-08T03:20:01;1.20;99.90
54680;DHT22;40578;53.178;5.846;2024-03-08T03:22:34;1.20;99.90
54680;DHT22;40578;53.178;5.846;2024-03-08T03:25:00;1.20;99.90
54680;DHT22;40578;53.178;5.846;2024-03-08T03:27:25;1.20;99.90
54680;DHT22;40578;53.178;5.846;2024-03-08T03:29:51;1.20;99.90
54680;DHT22;40578;53.178;5.846;2024-03-08T03:32:17;1.10;99.90
54680;DHT22;40578;53.178;5.846;2024-03-08T03:34:46;1.30;99.90
54680;DHT22;40578;53.178;5.846;2024-03-08T03:37:12;1.50;99.90
54680;DHT22;40578;53.178;5.846;2024-03-08T03:39:43;1.10;99.90
54680;DHT22;40578;53.178;5.846;2024-03-08T03:42:18;1.10;99.90
54680;DHT22;40578;53.178;5.846;2024-03-08T03:44:45;1.10;99.90
54680;DHT22;40578;53.178;5.846;2024-03-08T03:47:11;1.10;99.90
54680;DHT22;40578;53.178;5.846;2024-03-08T03:49:37;1.00;99.90
54680;DHT22;40578;53.178;5.846;2024-03-08T03:52:02;1.10;99.90
54680;DHT22;40578;53.178;5.846;2024-03-08T03:54:30;1.10;99.90
54680;DHT22;40578;53.178;5.846;2024-03-08T03:56:56;1.20;99.90
54680;DHT22;40578;53.178;5.846;2024-03-08T03:59:22;1.20;99.90
54680;DHT22;40578;53.178;5.846;2024-03-08T04:01:47;1.20;99.90
54680;DHT22;40578;53.178;5.846;2024-03-08T04:04:15;1.20;99.90
54680;DHT22;40578;53.178;5.846;2024-03-08T04:06:40;1.10;99.90
54680;DHT22;40578;53.178;5.846;2024-03-08T04:09:07;1.20;99.90
54680;DHT22;40578;53.178;5.846;2024-03-08T04:11:33;1.20;99.90
54680;DHT22;40578;53.178;5.846;2024-03-08T04:13:58;1.20;99.90
54680;DHT22;40578;53.178;5.846;2024-03-08T04:16:24;1.30;99.90
54680;DHT22;40578;53.178;5.846;2024-03-08T04:18:51;1.20;99.90
54680;DHT22;40578;53.178;5.846;2024-03-08T04:21:17;1.20;99.90
54680;DHT22;40578;53.178;5.846;2024-03-08T04:23:44;1.30;99.90
54680;DHT22;40578;53.178;5.846;2024-03-08T04:26:11;1.20;99.90
54680;DHT22;40578;53.178;5.846;2024-03-08T04:28:36;1.20;99.90
54680;DHT22;40578;53.178;5.846;2024-03-08T04:31:03;1.20;99.90
54680;DHT22;40578;53.178;5.846;2024-03-08T04:33:29;1.10;99.90
54680;DHT22;40578;53.178;5.846;2024-03-08T04:35:54;1.10;99.90
54680;DHT22;40578;53.178;5.846;2024-03-08T04:38:20;1.10;99.90
54680;DHT22;40578;53.178;5.846;2024-03-08T04:40:46;1.20;99.90
54680;DHT22;40578;53.178;5.846;2024-03-08T04:43:12;1.10;99.90
54680;DHT22;40578;53.178;5.846;2024-03-08T04:45:38;1.10;99.90
54680;DHT22;40578;53.178;5.846;2024-03-08T04:48:04;1.20;99.90
54680;DHT22;40578;53.178;5.846;2024-03-08T04:50:30;1.10;99.90
54680;DHT22;40578;53.178;5.846;2024-03-08T04:52:56;1.10;99.90
54680;DHT22;40578;53.178;5.846;2024-03-08T04:55:21;1.10;99.90
54680;DHT22;40578;53.178;5.846;2024-03-08T04:57:48;1.10;99.90
54680;DHT22;40578;53.178;5.846;2024-03-08T05:00:14;1.00;99.90
54680;DHT22;40578;53.178;5.846;2024-03-08T05:02:41;1.00;99.90
54680;DHT22;40578;53.178;5.846;2024-03-08T05:05:08;1.10;99.90
54680;DHT22;40578;53.178;5.846;2024-03-08T05:07:38;1.00;99.90
54680;DHT22;40578;53.178;5.846;2024-03-08T05:10:05;1.00;99.90
54680;DHT22;40578;53.178;5.846;2024-03-08T05:12:35;1.00;99.90
54680;DHT22;40578;53.178;5.846;2024-03-08T05:15:01;1.00;99.90
54680;DHT22;40578;53.178;5.846;2024-03-08T05:17:27;1.00;99.90
54680;DHT22;40578;53.178;5.846;2024-03-08T05:19:53;0.90;99.90
54680;DHT22;40578;53.178;5.846;2024-03-08T05:22:19;0.90;99.90
54680;DHT22;40578;53.178;5.846;2024-03-08T05:24:44;1.00;99.90
54680;DHT22;40578;53.178;5.846;2024-03-08T05:27:10;1.00;99.90
54680;DHT22;40578;53.178;5.846;2024-03-08T05:29:36;1.00;99.90
54680;DHT22;40578;53.178;5.846;2024-03-08T05:32:02;1.10;99.90
54680;DHT22;40578;53.178;5.846;2024-03-08T05:34:29;1.00;99.90
54680;DHT22;40578;53.178;5.846;2024-03-08T05:36:55;1.00;99.90
54680;DHT22;40578;53.178;5.846;2024-03-08T05:39:20;0.90;99.90
54680;DHT22;40578;53.178;5.846;2024-03-08T05:41:46;0.90;99.90
54680;DHT22;40578;53.178;5.846;2024-03-08T05:44:13;0.90;99.90
54680;DHT22;40578;53.178;5.846;2024-03-08T05:46:39;0.90;99.90
54680;DHT22;40578;53.178;5.846;2024-03-08T05:49:06;0.90;99.90
54680;DHT22;40578;53.178;5.846;2024-03-08T05:51:33;1.00;99.90
54680;DHT22;40578;53.178;5.846;2024-03-08T05:54:05;0.90;99.90
54680;DHT22;40578;53.178;5.846;2024-03-08T05:56:32;0.90;99.90
54680;DHT22;40578;53.178;5.846;2024-03-08T05:58:58;0.90;99.90
54680;DHT22;40578;53.178;5.846;2024-03-08T06:01:24;0.90;99.90
54680;DHT22;40578;53.178;5.846;2024-03-08T06:03:50;0.80;99.90
54680;DHT22;40578;53.178;5.846;2024-03-08T06:06:16;0.90;99.90
54680;DHT22;40578;53.178;5.846;2024-03-08T06:08:43;0.80;99.90
54680;DHT22;40578;53.178;5.846;2024-03-08T06:11:09;1.70;99.90
54680;DHT22;40578;53.178;5.846;2024-03-08T06:13:35;0.90;99.90
54680;DHT22;40578;53.178;5.846;2024-03-08T06:16:01;0.80;99.90
54680;DHT22;40578;53.178;5.846;2024-03-08T06:18:30;1.10;99.90
54680;DHT22;40578;53.178;5.846;2024-03-08T06:20:56;0.80;99.90
54680;DHT22;40578;53.178;5.846;2024-03-08T06:23:22;0.80;99.90
54680;DHT22;40578;53.178;5.846;2024-03-08T06:25:48;0.80;99.90
54680;DHT22;40578;53.178;5.846;2024-03-08T06:28:14;0.70;99.90
54680;DHT22;40578;53.178;5.846;2024-03-08T06:30:40;0.70;99.90
54680;DHT22;40578;53.178;5.846;2024-03-08T06:33:05;0.70;99.90
54680;DHT22;40578;53.178;5.846;2024-03-08T06:35:32;0.70;99.90
54680;DHT22;40578;53.178;5.846;2024-03-08T06:37:58;0.80;99.90
54680;DHT22;40578;53.178;5.846;2024-03-08T06:40:24;0.80;99.90
54680;DHT22;40578;53.178;5.846;2024-03-08T06:42:49;0.70;99.90
54680;DHT22;40578;53.178;5.846;2024-03-08T06:45:17;0.80;99.90
54680;DHT22;40578;53.178;5.846;2024-03-08T06:47:46;0.80;99.90
54680;DHT22;40578;53.178;5.846;2024-03-08T06:50:12;0.90;99.90
54680;DHT22;40578;53.178;5.846;2024-03-08T06:52:38;0.80;99.90
54680;DHT22;40578;53.178;5.846;2024-03-08T06:55:04;0.80;99.90
54680;DHT22;40578;53.178;5.846;2024-03-08T06:57:31;0.90;99.90
54680;DHT22;40578;53.178;5.846;2024-03-08T06:59:57;1.00;99.90
54680;DHT22;40578;53.178;5.846;2024-03-08T07:02:23;0.90;99.90
54680;DHT22;40578;53.178;5.846;2024-03-08T07:04:52;1.00;99.90
54680;DHT22;40578;53.178;5.846;2024-03-08T07:07:18;1.10;99.90
54680;DHT22;40578;53.178;5.846;2024-03-08T07:09:46;1.10;99.90
54680;DHT22;40578;53.178;5.846;2024-03-08T07:12:11;1.10;99.90
54680;DHT22;40578;53.178;5.846;2024-03-08T07:14:39;1.10;99.90
54680;DHT22;40578;53.178;5.846;2024-03-08T07:17:11;1.10;99.90
54680;DHT22;40578;53.178;5.846;2024-03-08T07:19:37;2.10;99.90
54680;DHT22;40578;53.178;5.846;2024-03-08T07:22:04;1.10;99.90
54680;DHT22;40578;53.178;5.846;2024-03-08T07:24:30;1.20;99.90
54680;DHT22;40578;53.178;5.846;2024-03-08T07:27:21;1.20;99.90
54680;DHT22;40578;53.178;5.846;2024-03-08T07:29:47;1.20;99.90
54680;DHT22;40578;53.178;5.846;2024-03-08T07:32:13;1.30;99.90
54680;DHT22;40578;53.178;5.846;2024-03-08T07:34:49;1.40;99.90
54680;DHT22;40578;53.178;5.846;2024-03-08T07:37:17;1.40;99.90
54680;DHT22;40578;53.178;5.846;2024-03-08T07:39:44;1.30;99.90
54680;DHT22;40578;53.178;5.846;2024-03-08T07:42:10;1.40;99.90
54680;DHT22;40578;53.178;5.846;2024-03-08T07:44:37;1.50;99.90
54680;DHT22;40578;53.178;5.846;2024-03-08T07:47:03;1.40;99.90
54680;DHT22;40578;53.178;5.846;2024-03-08T07:49:29;1.70;99.90
54680;DHT22;40578;53.178;5.846;2024-03-08T07:51:56;1.60;99.90
54680;DHT22;40578;53.178;5.846;2024-03-08T07:54:22;1.60;99.90
54680;DHT22;40578;53.178;5.846;2024-03-08T07:56:47;1.70;99.90
54680;DHT22;40578;53.178;5.846;2024-03-08T07:59:13;1.90;99.90
54680;DHT22;40578;53.178;5.846;2024-03-08T08:01:39;1.90;99.90
54680;DHT22;40578;53.178;5.846;2024-03-08T08:04:04;2.00;99.90
54680;DHT22;40578;53.178;5.846;2024-03-08T08:06:30;2.00;99.90
54680;DHT22;40578;53.178;5.846;2024-03-08T08:08:59;1.90;99.90
54680;DHT22;40578;53.178;5.846;2024-03-08T08:11:26;2.00;99.90
54680;DHT22;40578;53.178;5.846;2024-03-08T08:13:53;2.10;99.90
54680;DHT22;40578;53.178;5.846;2024-03-08T08:16:20;2.10;99.90
54680;DHT22;40578;53.178;5.846;2024-03-08T08:18:45;2.30;99.90
54680;DHT22;40578;53.178;5.846;2024-03-08T08:21:11;2.10;99.90
54680;DHT22;40578;53.178;5.846;2024-03-08T08:23:37;2.40;99.90
54680;DHT22;40578;53.178;5.846;2024-03-08T08:26:03;2.20;99.90
54680;DHT22;40578;53.178;5.846;2024-03-08T08:28:29;2.30;99.90
54680;DHT22;40578;53.178;5.846;2024-03-08T08:30:55;2.30;99.90
54680;DHT22;40578;53.178;5.846;2024-03-08T08:33:20;2.30;99.90
54680;DHT22;40578;53.178;5.846;2024-03-08T08:35:46;2.40;99.90
54680;DHT22;40578;53.178;5.846;2024-03-08T08:38:13;2.40;99.90
54680;DHT22;40578;53.178;5.846;2024-03-08T08:40:39;2.50;99.90
54680;DHT22;40578;53.178;5.846;2024-03-08T08:43:04;2.60;99.90
54680;DHT22;40578;53.178;5.846;2024-03-08T08:45:30;2.70;99.90
54680;DHT22;40578;53.178;5.846;2024-03-08T08:47:57;2.70;99.90
54680;DHT22;40578;53.178;5.846;2024-03-08T08:50:25;2.70;99.90
54680;DHT22;40578;53.178;5.846;2024-03-08T08:52:52;2.80;99.90
54680;DHT22;40578;53.178;5.846;2024-03-08T08:55:18;2.80;99.90
54680;DHT22;40578;53.178;5.846;2024-03-08T08:57:47;3.00;99.90
54680;DHT22;40578;53.178;5.846;2024-03-08T09:00:20;3.00;99.90
54680;DHT22;40578;53.178;5.846;2024-03-08T09:02:47;3.00;99.90
54680;DHT22;40578;53.178;5.846;2024-03-08T09:05:13;3.10;99.90
54680;DHT22;40578;53.178;5.846;2024-03-08T09:07:43;3.70;99.90
54680;DHT22;40578;53.178;5.846;2024-03-08T09:10:10;3.20;99.90
54680;DHT22;40578;53.178;5.846;2024-03-08T09:12:38;3.30;99.90
54680;DHT22;40578;53.178;5.846;2024-03-08T09:15:05;3.30;99.90
54680;DHT22;40578;53.178;5.846;2024-03-08T09:17:34;3.40;99.90
54680;DHT22;40578;53.178;5.846;2024-03-08T09:19:59;3.50;99.90
54680;DHT22;40578;53.178;5.846;2024-03-08T09:22:25;3.80;99.90
54680;DHT22;40578;53.178;5.846;2024-03-08T09:24:51;3.50;99.90
54680;DHT22;40578;53.178;5.846;2024-03-08T09:27:17;3.60;99.90
54680;DHT22;40578;53.178;5.846;2024-03-08T09:29:43;3.70;99.90
54680;DHT22;40578;53.178;5.846;2024-03-08T09:32:10;4.00;99.90
54680;DHT22;40578;53.178;5.846;2024-03-08T09:34:37;3.80;99.90
54680;DHT22;40578;53.178;5.846;2024-03-08T09:37:03;3.90;99.90
54680;DHT22;40578;53.178;5.846;2024-03-08T09:39:30;3.90;99.90
54680;DHT22;40578;53.178;5.846;2024-03-08T09:41:55;4.00;99.90
54680;DHT22;40578;53.178;5.846;2024-03-08T09:44:22;4.10;99.90
54680;DHT22;40578;53.178;5.846;2024-03-08T09:46:49;4.20;99.90
54680;DHT22;40578;53.178;5.846;2024-03-08T09:49:18;4.10;99.90
54680;DHT22;40578;53.178;5.846;2024-03-08T09:51:44;4.20;99.90
54680;DHT22;40578;53.178;5.846;2024-03-08T09:54:10;4.20;99.90
54680;DHT22;40578;53.178;5.846;2024-03-08T09:56:36;4.50;99.90
54680;DHT22;40578;53.178;5.846;2024-03-08T09:59:02;4.60;99.90
54680;DHT22;40578;53.178;5.846;2024-03-08T10:01:37;4.30;99.90
54680;DHT22;40578;53.178;5.846;2024-03-08T10:04:04;4.30;99.90
54680;DHT22;40578;53.178;5.846;2024-03-08T10:06:30;4.40;99.90
54680;DHT22;40578;53.178;5.846;2024-03-08T10:08:57;4.50;99.90
54680;DHT22;40578;53.178;5.846;2024-03-08T10:11:24;4.50;99.90
54680;DHT22;40578;53.178;5.846;2024-03-08T10:13:50;4.50;99.90
54680;DHT22;40578;53.178;5.846;2024-03-08T10:16:16;4.50;99.90
54680;DHT22;40578;53.178;5.846;2024-03-08T10:18:47;4.60;99.90
54680;DHT22;40578;53.178;5.846;2024-03-08T10:21:13;4.60;99.90
54680;DHT22;40578;53.178;5.846;2024-03-08T10:23:40;4.70;99.90
54680;DHT22;40578;53.178;5.846;2024-03-08T10:26:13;4.70;99.90
54680;DHT22;40578;53.178;5.846;2024-03-08T10:28:46;4.70;99.90
54680;DHT22;40578;53.178;5.846;2024-03-08T10:31:15;4.70;99.90
54680;DHT22;40578;53.178;5.846;2024-03-08T10:33:41;5.10;99.90
54680;DHT22;40578;53.178;5.846;2024-03-08T10:36:08;4.70;99.90
54680;DHT22;40578;53.178;5.846;2024-03-08T10:38:40;4.70;99.90
54680;DHT22;40578;53.178;5.846;2024-03-08T10:41:06;4.80;99.90
54680;DHT22;40578;53.178;5.846;2024-03-08T10:44:08;4.70;99.90
54680;DHT22;40578;53.178;5.846;2024-03-08T10:47:02;4.70;99.90
54680;DHT22;40578;53.178;5.846;2024-03-08T10:52:17;5.10;99.90
54680;DHT22;40578;53.178;5.846;2024-03-08T10:54:45;4.80;99.90
54680;DHT22;40578;53.178;5.846;2024-03-08T10:57:13;4.80;99.90
54680;DHT22;40578;53.178;5.846;2024-03-08T10:59:39;4.90;99.90
54680;DHT22;40578;53.178;5.846;2024-03-08T11:02:05;4.90;99.90
54680;DHT22;40578;53.178;5.846;2024-03-08T11:04:32;4.90;99.90
54680;DHT22;40578;53.178;5.846;2024-03-08T11:07:02;5.00;99.90
54680;DHT22;40578;53.178;5.846;2024-03-08T11:09:35;5.00;99.90
54680;DHT22;40578;53.178;5.846;2024-03-08T11:12:20;5.00;99.90
54680;DHT22;40578;53.178;5.846;2024-03-08T11:14:48;5.10;99.90
54680;DHT22;40578;53.178;5.846;2024-03-08T11:17:16;5.10;99.90
54680;DHT22;40578;53.178;5.846;2024-03-08T11:19:48;5.30;99.90
54680;DHT22;40578;53.178;5.846;2024-03-08T11:22:27;5.30;99.90
54680;DHT22;40578;53.178;5.846;2024-03-08T11:24:59;5.30;99.90
54680;DHT22;40578;53.178;5.846;2024-03-08T11:27:30;5.30;99.90
54680;DHT22;40578;53.178;5.846;2024-03-08T11:30:04;5.50;99.90
54680;DHT22;40578;53.178;5.846;2024-03-08T11:32:37;5.50;99.90
54680;DHT22;40578;53.178;5.846;2024-03-08T11:35:17;5.60;99.90
54680;DHT22;40578;53.178;5.846;2024-03-08T11:37:45;5.60;99.90
54680;DHT22;40578;53.178;5.846;2024-03-08T11:40:13;5.70;99.90
54680;DHT22;40578;53.178;5.846;2024-03-08T11:42:46;5.80;99.90
54680;DHT22;40578;53.178;5.846;2024-03-08T11:45:13;5.90;99.90
54680;DHT22;40578;53.178;5.846;2024-03-08T11:47:42;5.90;99.90
54680;DHT22;40578;53.178;5.846;2024-03-08T11:50:11;6.00;99.90
54680;DHT22;40578;53.178;5.846;2024-03-08T11:52:37;6.00;99.90
54680;DHT22;40578;53.178;5.846;2024-03-08T11:55:03;6.00;99.90
54680;DHT22;40578;53.178;5.846;2024-03-08T11:57:30;6.10;99.90
54680;DHT22;40578;53.178;5.846;2024-03-08T11:59:58;6.30;99.90
54680;DHT22;40578;53.178;5.846;2024-03-08T12:02:24;6.50;99.90
54680;DHT22;40578;53.178;5.846;2024-03-08T12:04:57;6.10;99.90
54680;DHT22;40578;53.178;5.846;2024-03-08T12:07:26;6.20;99.90
54680;DHT22;40578;53.178;5.846;2024-03-08T12:12:46;6.30;99.90
54680;DHT22;40578;53.178;5.846;2024-03-08T12:15:14;6.30;99.90
54680;DHT22;40578;53.178;5.846;2024-03-08T12:17:41;6.40;99.90
54680;DHT22;40578;53.178;5.846;2024-03-08T12:20:27;6.40;99.90
54680;DHT22;40578;53.178;5.846;2024-03-08T12:22:57;6.50;99.90
54680;DHT22;40578;53.178;5.846;2024-03-08T12:25:26;6.50;99.90
54680;DHT22;40578;53.178;5.846;2024-03-08T12:27:52;6.50;99.90
54680;DHT22;40578;53.178;5.846;2024-03-08T12:30:19;6.70;99.90
54680;DHT22;40578;53.178;5.846;2024-03-08T12:32:59;6.60;99.90
54680;DHT22;40578;53.178;5.846;2024-03-08T12:35:27;6.70;99.90
54680;DHT22;40578;53.178;5.846;2024-03-08T12:37:54;6.70;99.90
54680;DHT22;40578;53.178;5.846;2024-03-08T12:40:31;6.80;99.90
54680;DHT22;40578;53.178;5.846;2024-03-08T12:43:06;6.80;99.90
54680;DHT22;40578;53.178;5.846;2024-03-08T12:45:32;6.90;99.90
54680;DHT22;40578;53.178;5.846;2024-03-08T12:47:58;6.90;99.90
54680;DHT22;40578;53.178;5.846;2024-03-08T12:50:25;7.00;99.90
54680;DHT22;40578;53.178;5.846;2024-03-08T12:52:50;7.00;99.90
54680;DHT22;40578;53.178;5.846;2024-03-08T12:55:18;7.10;99.90
54680;DHT22;40578;53.178;5.846;2024-03-08T12:57:44;7.20;99.90
54680;DHT22;40578;53.178;5.846;2024-03-08T13:00:12;7.20;99.90
54680;DHT22;40578;53.178;5.846;2024-03-08T13:02:47;7.20;99.90
54680;DHT22;40578;53.178;5.846;2024-03-08T13:05:13;7.20;99.90
54680;DHT22;40578;53.178;5.846;2024-03-08T13:07:42;7.30;99.90
54680;DHT22;40578;53.178;5.846;2024-03-08T13:10:12;7.20;99.90
54680;DHT22;40578;53.178;5.846;2024-03-08T13:12:41;7.20;99.90
54680;DHT22;40578;53.178;5.846;2024-03-08T13:15:07;7.40;99.90
54680;DHT22;40578;53.178;5.846;2024-03-08T13:17:34;7.40;99.90
54680;DHT22;40578;53.178;5.846;2024-03-08T13:19:59;7.50;99.90
54680;DHT22;40578;53.178;5.846;2024-03-08T13:22:25;7.60;99.90
54680;DHT22;40578;53.178;5.846;2024-03-08T13:24:51;7.60;99.90
54680;DHT22;40578;53.178;5.846;2024-03-08T13:27:18;7.70;99.90
54680;DHT22;40578;53.178;5.846;2024-03-08T13:29:48;7.70;99.90
54680;DHT22;40578;53.178;5.846;2024-03-08T13:32:15;7.70;99.90
54680;DHT22;40578;53.178;5.846;2024-03-08T13:34:41;7.80;99.90
54680;DHT22;40578;53.178;5.846;2024-03-08T13:37:06;7.80;99.90
54680;DHT22;40578;53.178;5.846;2024-03-08T13:39:32;7.80;99.90
54680;DHT22;40578;53.178;5.846;2024-03-08T13:42:15;7.90;99.90
54680;DHT22;40578;53.178;5.846;2024-03-08T13:44:45;7.90;99.90
54680;DHT22;40578;53.178;5.846;2024-03-08T13:47:14;7.80;99.90
54680;DHT22;40578;53.178;5.846;2024-03-08T13:49:40;7.80;99.90
54680;DHT22;40578;53.178;5.846;2024-03-08T13:52:06;7.80;99.90
54680;DHT22;40578;53.178;5.846;2024-03-08T13:54:34;8.00;99.90
54680;DHT22;40578;53.178;5.846;2024-03-08T13:57:00;7.90;99.90
54680;DHT22;40578;53.178;5.846;2024-03-08T13:59:29;8.00;99.90
54680;DHT22;40578;53.178;5.846;2024-03-08T14:01:56;7.90;99.90
54680;DHT22;40578;53.178;5.846;2024-03-08T14:04:23;8.00;99.90
54680;DHT22;40578;53.178;5.846;2024-03-08T14:06:49;8.10;99.90
54680;DHT22;40578;53.178;5.846;2024-03-08T14:09:15;8.00;99.90
54680;DHT22;40578;53.178;5.846;2024-03-08T14:11:44;8.00;99.90
54680;DHT22;40578;53.178;5.846;2024-03-08T14:14:11;8.00;99.90
54680;DHT22;40578;53.178;5.846;2024-03-08T14:16:39;8.10;99.90
54680;DHT22;40578;53.178;5.846;2024-03-08T14:19:05;8.10;99.90
54680;DHT22;40578;53.178;5.846;2024-03-08T14:21:34;8.20;99.90
54680;DHT22;40578;53.178;5.846;2024-03-08T14:23:59;8.20;99.90
54680;DHT22;40578;53.178;5.846;2024-03-08T14:26:25;8.20;99.90
54680;DHT22;40578;53.178;5.846;2024-03-08T14:28:51;8.20;99.90
54680;DHT22;40578;53.178;5.846;2024-03-08T14:31:20;8.30;99.90
54680;DHT22;40578;53.178;5.846;2024-03-08T14:33:49;8.20;99.90
54680;DHT22;40578;53.178;5.846;2024-03-08T14:36:15;8.20;99.90
54680;DHT22;40578;53.178;5.846;2024-03-08T14:38:48;8.30;99.90
54680;DHT22;40578;53.178;5.846;2024-03-08T14:41:13;8.30;99.90
54680;DHT22;40578;53.178;5.846;2024-03-08T14:43:42;8.30;99.90
54680;DHT22;40578;53.178;5.846;2024-03-08T14:46:14;8.30;99.90
54680;DHT22;40578;53.178;5.846;2024-03-08T14:48:45;8.20;99.90
54680;DHT22;40578;53.178;5.846;2024-03-08T14:51:13;8.30;99.90
54680;DHT22;40578;53.178;5.846;2024-03-08T14:53:43;8.30;99.90
54680;DHT22;40578;53.178;5.846;2024-03-08T14:56:11;8.30;99.90
54680;DHT22;40578;53.178;5.846;2024-03-08T14:58:45;8.30;99.90
54680;DHT22;40578;53.178;5.846;2024-03-08T15:01:15;8.20;99.90
54680;DHT22;40578;53.178;5.846;2024-03-08T15:03:41;8.30;99.90
54680;DHT22;40578;53.178;5.846;2024-03-08T15:06:08;8.30;99.90
54680;DHT22;40578;53.178;5.846;2024-03-08T15:08:36;8.30;99.90
54680;DHT22;40578;53.178;5.846;2024-03-08T15:11:01;8.30;99.90
54680;DHT22;40578;53.178;5.846;2024-03-08T15:13:27;8.30;99.90
54680;DHT22;40578;53.178;5.846;2024-03-08T15:15:59;8.50;99.90
54680;DHT22;40578;53.178;5.846;2024-03-08T15:18:25;8.30;99.90
54680;DHT22;40578;53.178;5.846;2024-03-08T15:20:54;8.30;99.90
54680;DHT22;40578;53.178;5.846;2024-03-08T15:23:20;8.30;99.90
54680;DHT22;40578;53.178;5.846;2024-03-08T15:25:47;8.30;99.90
54680;DHT22;40578;53.178;5.846;2024-03-08T15:28:15;8.30;99.90
54680;DHT22;40578;53.178;5.846;2024-03-08T15:30:43;8.40;99.90
54680;DHT22;40578;53.178;5.846;2024-03-08T15:33:13;8.40;99.90
54680;DHT22;40578;53.178;5.846;2024-03-08T15:35:41;8.40;99.90
54680;DHT22;40578;53.178;5.846;2024-03-08T15:38:07;8.40;99.90
54680;DHT22;40578;53.178;5.846;2024-03-08T15:40:33;8.40;99.90
54680;DHT22;40578;53.178;5.846;2024-03-08T15:43:00;8.30;99.90
54680;DHT22;40578;53.178;5.846;2024-03-08T15:45:26;8.30;99.90
54680;DHT22;40578;53.178;5.846;2024-03-08T15:47:52;8.30;99.90
54680;DHT22;40578;53.178;5.846;2024-03-08T15:50:18;8.20;99.90
54680;DHT22;40578;53.178;5.846;2024-03-08T15:52:46;8.20;99.90